Torredonjimeno, Spain
Current Conditions -  °F | °C
As of 11:00 PM on Monday 24 Nov 2014 (Local Time) from LEGR Reporting Station
Few Clouds Few Clouds  
Wind Chill: 55°   Ceiling: Unl
Heat Index: 55°   Visibility: 6mi
Dew Point: 54°   Wind: 5mph
Humidity: 94%   Direction: 260°W
Pressure: 30.06"   Gusts: NA
Location:  37.77°N, 3.96°W
Report Text: LEGR 242200Z 26004KT 9999 FEW110 13/12 Q1018
Loading
Personal Weather Stations






























Interactive Weather Map New forecast layout! Learn more

10-Day Weather Forecast

Advertisements
Track Severe Weather on mobile